Harrisburg International Airport
KMDT : now visible

Aeroporto :











RITROVATECI SU...

 
LOGIN :

Iscrizione | Disclaimer

   EN    FR    IT 

 









Sommario :    VFR   VFR Marginale   IFR   IFR Intensivo   IFR Molto Intensivo
Visibilità : 
Base nubi : 
>= 8 km
>= 3000ft
5 / 8 km
1000 / 3000 ft
1500m / 5 km
500 / 1000 ft
800 / 1500m
200 / 500 ft
< 800m
< 200 ft
Simboli :   Temporali  Nebbia  Neve Forte  Precipitazioni Forti  Vento > 20 kt






- Altitudine del aeroporto : 310 ft
- Codice IATA : MDT


KMDT - Harrisburg International

ULTIMO METAR :
  • 040256Z 34011KT 10SM OVC065 09/02 A2994 RMK AO2 SLP139 T00940022 51014

METARs OBSOLETI :
  • 040156Z 34008KT 10SM OVC065 09/02 A2993 RMK AO2 SLP138 T00940022
  • 040056Z 36011KT 10SM OVC060 10/02 A2992 RMK AO2 SLP135 T01000022

TAF KMDT
Valido dal 04 a 00 ore il 05 a 00 ore UTC


032329Z 0400/0424 36010G20KT P6SM OVC060
FM040300 32010KT P6SM OVC040
FM040600 31007KT P6SM OVC035



MetMap, La meteo Aeronautica in un colpo d'occhio ! - Copyright ORBIFLY Dicembre 2007 - Disclaimer

ORBIFLY MET'MAP TEAM :

Programmazione e sviluppo : Alexandra Zaïnal
Concezione : Baudouin d'Aumeries
Aiuto per la programmazione : Marc-Olivier Méhu
Supporto tecnico e logistico : Manuel Goepfert
Aiuto per la traduzione : Arnaldo La Scala

Contatto : metmap@orbifly.com




FONTI E CREDITI :

   NOAA       Earth
Advisory